Akron, Colorado
Current Conditions -  °F | °C
As of 5:53 AM on Friday 24 Oct 2014 (Local Time) from KAKO Reporting Station
Clear Clear  
Wind Chill: 54°   Ceiling: Unl
Heat Index: 54°   Visibility: 10mi
Dew Point: 34°   Wind: 12mph
Humidity: 47%   Direction: 240°WSW
Pressure: 30.09"   Gusts: NA
Location:  40.16°N, 103.21°W
Report Text: KAKO 241153Z AUTO 24010KT 10SM CLR 12/01 A3009 RMK AO2 SLP156 T01220011 10139 20111 56002
Loading
Personal Weather Stations






























Interactive Weather Map
Tropical Storm Tracking
New forecast layout! Learn more

10-Day Weather Forecast

Advertisements
Track Severe Weather on mobile